sensor_id;sensor_type;location;lat;lon;timestamp;temperature;humidity
79010;DHT22;73031;44.726;37.760;2024-03-02T00:01:00;8.26;43.72
79010;DHT22;73031;44.726;37.760;2024-03-02T00:02:01;8.20;43.82
79010;DHT22;73031;44.726;37.760;2024-03-02T00:03:03;8.20;44.11
79010;DHT22;73031;44.726;37.760;2024-03-02T00:04:05;8.17;44.92
79010;DHT22;73031;44.726;37.760;2024-03-02T00:05:08;8.14;44.55
79010;DHT22;73031;44.726;37.760;2024-03-02T00:06:11;8.14;45.40
79010;DHT22;73031;44.726;37.760;2024-03-02T00:07:14;8.10;45.28
79010;DHT22;73031;44.726;37.760;2024-03-02T00:08:26;8.07;45.88
79010;DHT22;73031;44.726;37.760;2024-03-02T00:09:27;8.07;45.81
79010;DHT22;73031;44.726;37.760;2024-03-02T00:10:38;8.00;45.66
79010;DHT22;73031;44.726;37.760;2024-03-02T00:11:42;7.96;46.08
79010;DHT22;73031;44.726;37.760;2024-03-02T00:12:47;7.96;44.91
79010;DHT22;73031;44.726;37.760;2024-03-02T00:13:48;7.95;44.71
79010;DHT22;73031;44.726;37.760;2024-03-02T00:14:52;7.96;44.27
79010;DHT22;73031;44.726;37.760;2024-03-02T00:15:55;7.92;45.67
79010;DHT22;73031;44.726;37.760;2024-03-02T00:16:56;7.89;45.33
79010;DHT22;73031;44.726;37.760;2024-03-02T00:17:57;7.85;45.77
79010;DHT22;73031;44.726;37.760;2024-03-02T00:19:03;7.83;45.52
79010;DHT22;73031;44.726;37.760;2024-03-02T00:20:04;7.81;45.22
79010;DHT22;73031;44.726;37.760;2024-03-02T00:21:10;7.81;45.60
79010;DHT22;73031;44.726;37.760;2024-03-02T00:22:11;7.76;45.54
79010;DHT22;73031;44.726;37.760;2024-03-02T00:23:16;7.74;45.79
79010;DHT22;73031;44.726;37.760;2024-03-02T00:24:29;7.71;45.86
79010;DHT22;73031;44.726;37.760;2024-03-02T00:25:54;7.64;46.02
79010;DHT22;73031;44.726;37.760;2024-03-02T00:26:56;7.62;46.22
79010;DHT22;73031;44.726;37.760;2024-03-02T00:27:57;7.62;46.80
79010;DHT22;73031;44.726;37.760;2024-03-02T00:28:59;7.57;46.48
79010;DHT22;73031;44.726;37.760;2024-03-02T00:30:04;7.57;46.18
79010;DHT22;73031;44.726;37.760;2024-03-02T00:31:08;7.57;46.36
79010;DHT22;73031;44.726;37.760;2024-03-02T00:32:13;7.55;46.20
79010;DHT22;73031;44.726;37.760;2024-03-02T00:33:16;7.54;46.11
79010;DHT22;73031;44.726;37.760;2024-03-02T00:34:17;7.52;46.95
79010;DHT22;73031;44.726;37.760;2024-03-02T00:35:20;7.54;47.39
79010;DHT22;73031;44.726;37.760;2024-03-02T00:36:27;7.48;47.00
79010;DHT22;73031;44.726;37.760;2024-03-02T00:37:29;7.48;47.11
79010;DHT22;73031;44.726;37.760;2024-03-02T00:38:31;7.44;46.93
79010;DHT22;73031;44.726;37.760;2024-03-02T00:39:32;7.41;46.76
79010;DHT22;73031;44.726;37.760;2024-03-02T00:40:33;7.43;46.97
79010;DHT22;73031;44.726;37.760;2024-03-02T00:41:34;7.41;47.66
79010;DHT22;73031;44.726;37.760;2024-03-02T00:42:36;7.46;47.05
79010;DHT22;73031;44.726;37.760;2024-03-02T00:44:02;7.41;47.59
79010;DHT22;73031;44.726;37.760;2024-03-02T00:45:09;7.40;47.70
79010;DHT22;73031;44.726;37.760;2024-03-02T00:46:20;7.41;47.78
79010;DHT22;73031;44.726;37.760;2024-03-02T00:47:21;7.37;48.00
79010;DHT22;73031;44.726;37.760;2024-03-02T00:48:22;7.35;48.52
79010;DHT22;73031;44.726;37.760;2024-03-02T00:49:24;7.37;47.23
79010;DHT22;73031;44.726;37.760;2024-03-02T00:50:26;7.33;48.39
79010;DHT22;73031;44.726;37.760;2024-03-02T00:51:29;7.27;48.21
79010;DHT22;73031;44.726;37.760;2024-03-02T00:52:31;7.26;47.44
79010;DHT22;73031;44.726;37.760;2024-03-02T00:53:33;7.30;48.52
79010;DHT22;73031;44.726;37.760;2024-03-02T00:54:34;7.27;48.03
79010;DHT22;73031;44.726;37.760;2024-03-02T00:55:36;7.26;47.97
79010;DHT22;73031;44.726;37.760;2024-03-02T00:56:38;7.28;47.72
79010;DHT22;73031;44.726;37.760;2024-03-02T00:57:39;7.28;47.74
79010;DHT22;73031;44.726;37.760;2024-03-02T00:58:42;7.27;48.40
79010;DHT22;73031;44.726;37.760;2024-03-02T00:59:43;7.27;47.53
79010;DHT22;73031;44.726;37.760;2024-03-02T01:00:44;7.24;48.53
79010;DHT22;73031;44.726;37.760;2024-03-02T01:01:45;7.24;48.14
79010;DHT22;73031;44.726;37.760;2024-03-02T01:02:47;7.20;48.76
79010;DHT22;73031;44.726;37.760;2024-03-02T01:03:48;7.17;48.26
79010;DHT22;73031;44.726;37.760;2024-03-02T01:04:50;7.19;48.89
79010;DHT22;73031;44.726;37.760;2024-03-02T01:05:51;7.13;49.03
79010;DHT22;73031;44.726;37.760;2024-03-02T01:06:52;7.13;49.27
79010;DHT22;73031;44.726;37.760;2024-03-02T01:07:53;7.14;49.04
79010;DHT22;73031;44.726;37.760;2024-03-02T01:08:54;7.16;49.38
79010;DHT22;73031;44.726;37.760;2024-03-02T01:09:55;7.14;49.00
79010;DHT22;73031;44.726;37.760;2024-03-02T01:10:56;7.12;48.73
79010;DHT22;73031;44.726;37.760;2024-03-02T01:11:57;7.13;48.55
79010;DHT22;73031;44.726;37.760;2024-03-02T01:12:58;7.14;49.39
79010;DHT22;73031;44.726;37.760;2024-03-02T01:13:59;7.09;48.83
79010;DHT22;73031;44.726;37.760;2024-03-02T01:15:00;7.10;49.03
79010;DHT22;73031;44.726;37.760;2024-03-02T01:16:02;7.07;48.73
79010;DHT22;73031;44.726;37.760;2024-03-02T01:17:03;7.06;48.63
79010;DHT22;73031;44.726;37.760;2024-03-02T01:18:05;7.09;48.59
79010;DHT22;73031;44.726;37.760;2024-03-02T01:19:06;7.05;48.30
79010;DHT22;73031;44.726;37.760;2024-03-02T01:20:10;7.06;48.96
79010;DHT22;73031;44.726;37.760;2024-03-02T01:21:11;7.09;48.10
79010;DHT22;73031;44.726;37.760;2024-03-02T01:22:12;7.06;48.49
79010;DHT22;73031;44.726;37.760;2024-03-02T01:23:13;7.07;48.23
79010;DHT22;73031;44.726;37.760;2024-03-02T01:24:15;7.09;47.69
79010;DHT22;73031;44.726;37.760;2024-03-02T01:25:16;7.10;48.24
79010;DHT22;73031;44.726;37.760;2024-03-02T01:26:17;7.07;48.23
79010;DHT22;73031;44.726;37.760;2024-03-02T01:27:18;7.07;48.53
79010;DHT22;73031;44.726;37.760;2024-03-02T01:28:19;7.06;48.39
79010;DHT22;73031;44.726;37.760;2024-03-02T01:29:21;7.09;48.19
79010;DHT22;73031;44.726;37.760;2024-03-02T01:30:22;7.09;48.24
79010;DHT22;73031;44.726;37.760;2024-03-02T01:31:23;7.06;48.22
79010;DHT22;73031;44.726;37.760;2024-03-02T01:32:24;7.05;48.37
79010;DHT22;73031;44.726;37.760;2024-03-02T01:33:25;7.05;48.85
79010;DHT22;73031;44.726;37.760;2024-03-02T01:34:26;7.03;49.18
79010;DHT22;73031;44.726;37.760;2024-03-02T01:35:27;7.03;48.87
79010;DHT22;73031;44.726;37.760;2024-03-02T01:36:28;7.00;48.85
79010;DHT22;73031;44.726;37.760;2024-03-02T01:37:29;7.02;48.27
79010;DHT22;73031;44.726;37.760;2024-03-02T01:38:31;6.99;48.14
79010;DHT22;73031;44.726;37.760;2024-03-02T01:39:32;7.00;48.00
79010;DHT22;73031;44.726;37.760;2024-03-02T01:40:34;7.05;47.58
79010;DHT22;73031;44.726;37.760;2024-03-02T01:41:36;7.00;47.80
79010;DHT22;73031;44.726;37.760;2024-03-02T01:42:38;7.07;47.78
79010;DHT22;73031;44.726;37.760;2024-03-02T01:43:39;7.06;47.59
79010;DHT22;73031;44.726;37.760;2024-03-02T01:44:40;7.10;50.29
79010;DHT22;73031;44.726;37.760;2024-03-02T01:45:42;7.13;48.06
79010;DHT22;73031;44.726;37.760;2024-03-02T01:46:43;7.16;48.19
79010;DHT22;73031;44.726;37.760;2024-03-02T01:47:44;7.16;47.65
79010;DHT22;73031;44.726;37.760;2024-03-02T01:48:46;7.13;47.86
79010;DHT22;73031;44.726;37.760;2024-03-02T01:49:48;7.09;47.93
79010;DHT22;73031;44.726;37.760;2024-03-02T01:50:50;7.07;47.95
79010;DHT22;73031;44.726;37.760;2024-03-02T01:51:51;7.06;48.70
79010;DHT22;73031;44.726;37.760;2024-03-02T01:52:52;7.03;48.72
79010;DHT22;73031;44.726;37.760;2024-03-02T01:53:54;7.05;48.70
79010;DHT22;73031;44.726;37.760;2024-03-02T01:54:55;7.03;48.81
79010;DHT22;73031;44.726;37.760;2024-03-02T01:55:56;7.03;49.10
79010;DHT22;73031;44.726;37.760;2024-03-02T01:56:58;6.99;48.91
79010;DHT22;73031;44.726;37.760;2024-03-02T01:57:59;6.96;48.65
79010;DHT22;73031;44.726;37.760;2024-03-02T01:59:00;6.95;48.61
79010;DHT22;73031;44.726;37.760;2024-03-02T02:00:01;6.95;48.59
79010;DHT22;73031;44.726;37.760;2024-03-02T02:01:04;6.93;48.73
79010;DHT22;73031;44.726;37.760;2024-03-02T02:02:05;6.92;48.65
79010;DHT22;73031;44.726;37.760;2024-03-02T02:03:06;6.91;48.56
79010;DHT22;73031;44.726;37.760;2024-03-02T02:04:07;6.95;48.26
79010;DHT22;73031;44.726;37.760;2024-03-02T02:05:08;6.97;48.44
79010;DHT22;73031;44.726;37.760;2024-03-02T02:06:10;6.96;48.91
79010;DHT22;73031;44.726;37.760;2024-03-02T02:07:11;6.95;49.22
79010;DHT22;73031;44.726;37.760;2024-03-02T02:08:12;6.93;49.34
79010;DHT22;73031;44.726;37.760;2024-03-02T02:09:13;6.89;49.63
79010;DHT22;73031;44.726;37.760;2024-03-02T02:10:14;6.91;48.76
79010;DHT22;73031;44.726;37.760;2024-03-02T02:11:16;6.92;49.76
79010;DHT22;73031;44.726;37.760;2024-03-02T02:12:17;6.92;49.56
79010;DHT22;73031;44.726;37.760;2024-03-02T02:13:18;6.92;49.19
79010;DHT22;73031;44.726;37.760;2024-03-02T02:14:19;6.93;49.69
79010;DHT22;73031;44.726;37.760;2024-03-02T02:15:30;6.92;49.72
79010;DHT22;73031;44.726;37.760;2024-03-02T02:16:31;6.92;50.58
79010;DHT22;73031;44.726;37.760;2024-03-02T02:17:32;6.92;49.73
79010;DHT22;73031;44.726;37.760;2024-03-02T02:18:34;6.93;49.74
79010;DHT22;73031;44.726;37.760;2024-03-02T02:19:35;6.95;49.20
79010;DHT22;73031;44.726;37.760;2024-03-02T02:20:36;6.93;49.20
79010;DHT22;73031;44.726;37.760;2024-03-02T02:21:37;6.93;48.99
79010;DHT22;73031;44.726;37.760;2024-03-02T02:22:38;6.92;49.57
79010;DHT22;73031;44.726;37.760;2024-03-02T02:23:39;6.91;49.17
79010;DHT22;73031;44.726;37.760;2024-03-02T02:24:43;6.88;49.59
79010;DHT22;73031;44.726;37.760;2024-03-02T02:25:44;6.89;49.54
79010;DHT22;73031;44.726;37.760;2024-03-02T02:26:45;6.89;48.75
79010;DHT22;73031;44.726;37.760;2024-03-02T02:27:46;6.88;49.09
79010;DHT22;73031;44.726;37.760;2024-03-02T02:28:47;6.89;49.52
79010;DHT22;73031;44.726;37.760;2024-03-02T02:29:48;6.86;48.43
79010;DHT22;73031;44.726;37.760;2024-03-02T02:30:49;6.86;48.69
79010;DHT22;73031;44.726;37.760;2024-03-02T02:31:51;6.88;47.93
79010;DHT22;73031;44.726;37.760;2024-03-02T02:32:52;6.91;48.36
79010;DHT22;73031;44.726;37.760;2024-03-02T02:33:53;6.93;48.40
79010;DHT22;73031;44.726;37.760;2024-03-02T02:34:54;6.92;48.68
79010;DHT22;73031;44.726;37.760;2024-03-02T02:35:55;6.89;49.12
79010;DHT22;73031;44.726;37.760;2024-03-02T02:36:56;6.86;49.25
79010;DHT22;73031;44.726;37.760;2024-03-02T02:38:04;6.89;48.11
79010;DHT22;73031;44.726;37.760;2024-03-02T02:39:06;6.92;48.03
79010;DHT22;73031;44.726;37.760;2024-03-02T02:40:08;6.93;46.59
79010;DHT22;73031;44.726;37.760;2024-03-02T02:41:10;6.93;46.78
79010;DHT22;73031;44.726;37.760;2024-03-02T02:42:11;6.96;47.54
79010;DHT22;73031;44.726;37.760;2024-03-02T02:43:12;7.00;45.95
79010;DHT22;73031;44.726;37.760;2024-03-02T02:44:13;7.07;46.74
79010;DHT22;73031;44.726;37.760;2024-03-02T02:45:14;7.07;46.42
79010;DHT22;73031;44.726;37.760;2024-03-02T02:46:16;7.06;46.09
79010;DHT22;73031;44.726;37.760;2024-03-02T02:47:17;7.09;45.79
79010;DHT22;73031;44.726;37.760;2024-03-02T02:48:18;7.10;45.69
79010;DHT22;73031;44.726;37.760;2024-03-02T02:49:19;7.12;45.44
79010;DHT22;73031;44.726;37.760;2024-03-02T02:50:20;7.14;45.24
79010;DHT22;73031;44.726;37.760;2024-03-02T02:51:21;7.14;45.77
79010;DHT22;73031;44.726;37.760;2024-03-02T02:52:22;7.16;45.43
79010;DHT22;73031;44.726;37.760;2024-03-02T02:53:24;7.16;46.29
79010;DHT22;73031;44.726;37.760;2024-03-02T02:54:25;7.16;45.17
79010;DHT22;73031;44.726;37.760;2024-03-02T02:55:26;7.19;44.15
79010;DHT22;73031;44.726;37.760;2024-03-02T02:56:27;7.22;44.17
79010;DHT22;73031;44.726;37.760;2024-03-02T02:57:28;7.19;44.28
79010;DHT22;73031;44.726;37.760;2024-03-02T02:58:31;7.26;44.15
79010;DHT22;73031;44.726;37.760;2024-03-02T02:59:32;7.26;43.65
79010;DHT22;73031;44.726;37.760;2024-03-02T03:00:33;7.30;44.47
79010;DHT22;73031;44.726;37.760;2024-03-02T03:01:34;7.31;43.32
79010;DHT22;73031;44.726;37.760;2024-03-02T03:02:38;7.34;43.32
79010;DHT22;73031;44.726;37.760;2024-03-02T03:03:39;7.35;43.19
79010;DHT22;73031;44.726;37.760;2024-03-02T03:04:41;7.34;44.06
79010;DHT22;73031;44.726;37.760;2024-03-02T03:05:42;7.38;44.02
79010;DHT22;73031;44.726;37.760;2024-03-02T03:06:43;7.37;43.77
79010;DHT22;73031;44.726;37.760;2024-03-02T03:07:44;7.38;43.01
79010;DHT22;73031;44.726;37.760;2024-03-02T03:08:45;7.43;42.55
79010;DHT22;73031;44.726;37.760;2024-03-02T03:09:46;7.44;43.47
79010;DHT22;73031;44.726;37.760;2024-03-02T03:10:47;7.50;42.62
79010;DHT22;73031;44.726;37.760;2024-03-02T03:11:49;7.48;42.93
79010;DHT22;73031;44.726;37.760;2024-03-02T03:12:50;7.48;42.53
79010;DHT22;73031;44.726;37.760;2024-03-02T03:13:51;7.51;42.84
79010;DHT22;73031;44.726;37.760;2024-03-02T03:14:52;7.48;42.86
79010;DHT22;73031;44.726;37.760;2024-03-02T03:15:53;7.51;42.84
79010;DHT22;73031;44.726;37.760;2024-03-02T03:16:54;7.51;43.16
79010;DHT22;73031;44.726;37.760;2024-03-02T03:17:56;7.52;42.56
79010;DHT22;73031;44.726;37.760;2024-03-02T03:18:59;7.50;42.58
79010;DHT22;73031;44.726;37.760;2024-03-02T03:20:02;7.51;44.95
79010;DHT22;73031;44.726;37.760;2024-03-02T03:21:04;7.52;43.16
79010;DHT22;73031;44.726;37.760;2024-03-02T03:22:05;7.54;42.80
79010;DHT22;73031;44.726;37.760;2024-03-02T03:23:06;7.55;41.86
79010;DHT22;73031;44.726;37.760;2024-03-02T03:24:08;7.55;42.47
79010;DHT22;73031;44.726;37.760;2024-03-02T03:25:09;7.57;42.05
79010;DHT22;73031;44.726;37.760;2024-03-02T03:26:15;7.57;43.44
79010;DHT22;73031;44.726;37.760;2024-03-02T03:27:16;7.62;42.20
79010;DHT22;73031;44.726;37.760;2024-03-02T03:28:17;7.62;42.60
79010;DHT22;73031;44.726;37.760;2024-03-02T03:29:18;7.68;42.52
79010;DHT22;73031;44.726;37.760;2024-03-02T03:30:19;7.72;42.25
79010;DHT22;73031;44.726;37.760;2024-03-02T03:31:20;7.74;42.34
79010;DHT22;73031;44.726;37.760;2024-03-02T03:32:22;7.71;42.24
79010;DHT22;73031;44.726;37.760;2024-03-02T03:33:23;7.74;42.62
79010;DHT22;73031;44.726;37.760;2024-03-02T03:34:24;7.74;42.14
79010;DHT22;73031;44.726;37.760;2024-03-02T03:35:25;7.71;42.42
79010;DHT22;73031;44.726;37.760;2024-03-02T03:36:26;7.74;42.42
79010;DHT22;73031;44.726;37.760;2024-03-02T03:37:27;7.72;42.14
79010;DHT22;73031;44.726;37.760;2024-03-02T03:38:33;7.75;42.53
79010;DHT22;73031;44.726;37.760;2024-03-02T03:39:34;7.75;42.74
79010;DHT22;73031;44.726;37.760;2024-03-02T03:40:38;7.71;42.72
79010;DHT22;73031;44.726;37.760;2024-03-02T03:41:40;7.74;43.29
79010;DHT22;73031;44.726;37.760;2024-03-02T03:42:41;7.75;42.85
79010;DHT22;73031;44.726;37.760;2024-03-02T03:43:42;7.74;42.59
79010;DHT22;73031;44.726;37.760;2024-03-02T03:44:43;7.75;42.36
79010;DHT22;73031;44.726;37.760;2024-03-02T03:45:44;7.75;42.33
79010;DHT22;73031;44.726;37.760;2024-03-02T03:46:45;7.76;42.77
79010;DHT22;73031;44.726;37.760;2024-03-02T03:47:46;7.76;42.41
79010;DHT22;73031;44.726;37.760;2024-03-02T03:48:48;7.76;43.08
79010;DHT22;73031;44.726;37.760;2024-03-02T03:49:49;7.81;45.05
79010;DHT22;73031;44.726;37.760;2024-03-02T03:50:50;7.86;44.95
79010;DHT22;73031;44.726;37.760;2024-03-02T03:51:51;7.92;46.63
79010;DHT22;73031;44.726;37.760;2024-03-02T03:52:52;7.95;46.54
79010;DHT22;73031;44.726;37.760;2024-03-02T03:53:53;7.97;45.11
79010;DHT22;73031;44.726;37.760;2024-03-02T03:54:54;7.99;44.79
79010;DHT22;73031;44.726;37.760;2024-03-02T03:55:55;7.99;44.19
79010;DHT22;73031;44.726;37.760;2024-03-02T03:56:57;7.99;44.69
79010;DHT22;73031;44.726;37.760;2024-03-02T03:57:58;7.96;44.01
79010;DHT22;73031;44.726;37.760;2024-03-02T03:58:59;7.96;43.40
79010;DHT22;73031;44.726;37.760;2024-03-02T04:00:00;7.95;43.95
79010;DHT22;73031;44.726;37.760;2024-03-02T04:01:01;7.99;44.09
79010;DHT22;73031;44.726;37.760;2024-03-02T04:02:03;8.00;44.63
79010;DHT22;73031;44.726;37.760;2024-03-02T04:03:05;7.97;45.38
79010;DHT22;73031;44.726;37.760;2024-03-02T04:04:06;8.06;44.12
79010;DHT22;73031;44.726;37.760;2024-03-02T04:05:07;8.07;45.53
79010;DHT22;73031;44.726;37.760;2024-03-02T04:06:11;8.09;44.66
79010;DHT22;73031;44.726;37.760;2024-03-02T04:07:12;8.07;43.52
79010;DHT22;73031;44.726;37.760;2024-03-02T04:08:17;8.10;45.49
79010;DHT22;73031;44.726;37.760;2024-03-02T04:09:18;8.14;44.91
79010;DHT22;73031;44.726;37.760;2024-03-02T04:10:19;8.14;44.71
79010;DHT22;73031;44.726;37.760;2024-03-02T04:11:21;8.22;45.03
79010;DHT22;73031;44.726;37.760;2024-03-02T04:12:22;8.26;44.99
79010;DHT22;73031;44.726;37.760;2024-03-02T04:13:24;8.31;44.16
79010;DHT22;73031;44.726;37.760;2024-03-02T04:14:25;8.31;44.55
79010;DHT22;73031;44.726;37.760;2024-03-02T04:15:26;8.33;42.89
79010;DHT22;73031;44.726;37.760;2024-03-02T04:16:27;8.33;42.78
79010;DHT22;73031;44.726;37.760;2024-03-02T04:17:31;8.33;44.52
79010;DHT22;73031;44.726;37.760;2024-03-02T04:18:33;8.34;43.41
79010;DHT22;73031;44.726;37.760;2024-03-02T04:19:34;8.40;44.40
79010;DHT22;73031;44.726;37.760;2024-03-02T04:20:35;8.42;43.43
79010;DHT22;73031;44.726;37.760;2024-03-02T04:21:36;8.41;43.71
79010;DHT22;73031;44.726;37.760;2024-03-02T04:22:38;8.44;44.52
79010;DHT22;73031;44.726;37.760;2024-03-02T04:23:39;8.50;43.85
79010;DHT22;73031;44.726;37.760;2024-03-02T04:24:40;8.54;43.45
79010;DHT22;73031;44.726;37.760;2024-03-02T04:25:41;8.55;43.53
79010;DHT22;73031;44.726;37.760;2024-03-02T04:26:42;8.57;43.60
79010;DHT22;73031;44.726;37.760;2024-03-02T04:27:43;8.61;43.33
79010;DHT22;73031;44.726;37.760;2024-03-02T04:28:45;8.62;42.95
79010;DHT22;73031;44.726;37.760;2024-03-02T04:29:46;8.67;43.86
79010;DHT22;73031;44.726;37.760;2024-03-02T04:30:47;8.71;44.47
79010;DHT22;73031;44.726;37.760;2024-03-02T04:31:48;8.79;43.34
79010;DHT22;73031;44.726;37.760;2024-03-02T04:32:49;8.76;43.37
79010;DHT22;73031;44.726;37.760;2024-03-02T04:33:50;8.78;43.85
79010;DHT22;73031;44.726;37.760;2024-03-02T04:34:51;8.83;43.60
79010;DHT22;73031;44.726;37.760;2024-03-02T04:35:52;8.87;43.54
79010;DHT22;73031;44.726;37.760;2024-03-02T04:36:53;8.90;42.93
79010;DHT22;73031;44.726;37.760;2024-03-02T04:37:55;8.95;43.14
79010;DHT22;73031;44.726;37.760;2024-03-02T04:38:56;8.96;42.75
79010;DHT22;73031;44.726;37.760;2024-03-02T04:39:57;9.02;43.81
79010;DHT22;73031;44.726;37.760;2024-03-02T04:40:58;9.09;45.86
79010;DHT22;73031;44.726;37.760;2024-03-02T04:41:59;9.20;43.77
79010;DHT22;73031;44.726;37.760;2024-03-02T04:43:01;9.32;44.61
79010;DHT22;73031;44.726;37.760;2024-03-02T04:44:02;9.38;43.32
79010;DHT22;73031;44.726;37.760;2024-03-02T04:45:03;9.51;45.35
79010;DHT22;73031;44.726;37.760;2024-03-02T04:46:05;9.55;43.68
79010;DHT22;73031;44.726;37.760;2024-03-02T04:47:07;9.62;44.85
79010;DHT22;73031;44.726;37.760;2024-03-02T04:48:08;9.67;43.56
79010;DHT22;73031;44.726;37.760;2024-03-02T04:49:10;9.71;42.71
79010;DHT22;73031;44.726;37.760;2024-03-02T04:50:11;9.68;42.28
79010;DHT22;73031;44.726;37.760;2024-03-02T04:51:12;9.74;41.65
79010;DHT22;73031;44.726;37.760;2024-03-02T04:52:14;9.76;41.76
79010;DHT22;73031;44.726;37.760;2024-03-02T04:53:15;9.85;42.44
79010;DHT22;73031;44.726;37.760;2024-03-02T04:54:16;9.92;41.22
79010;DHT22;73031;44.726;37.760;2024-03-02T04:55:17;9.97;41.65
79010;DHT22;73031;44.726;37.760;2024-03-02T04:56:30;10.03;41.08
79010;DHT22;73031;44.726;37.760;2024-03-02T04:58:00;10.12;40.55
79010;DHT22;73031;44.726;37.760;2024-03-02T04:59:01;10.17;40.81
79010;DHT22;73031;44.726;37.760;2024-03-02T05:00:02;10.24;39.83
79010;DHT22;73031;44.726;37.760;2024-03-02T05:01:07;10.33;39.75
79010;DHT22;73031;44.726;37.760;2024-03-02T05:02:08;10.38;39.64
79010;DHT22;73031;44.726;37.760;2024-03-02T05:03:09;10.47;39.85
79010;DHT22;73031;44.726;37.760;2024-03-02T05:04:11;10.55;39.37
79010;DHT22;73031;44.726;37.760;2024-03-02T05:05:12;10.64;39.89
79010;DHT22;73031;44.726;37.760;2024-03-02T05:06:13;10.71;39.52
79010;DHT22;73031;44.726;37.760;2024-03-02T05:07:15;10.83;39.84
79010;DHT22;73031;44.726;37.760;2024-03-02T05:08:16;10.93;39.14
79010;DHT22;73031;44.726;37.760;2024-03-02T05:09:17;11.04;38.74
79010;DHT22;73031;44.726;37.760;2024-03-02T05:10:19;11.13;38.31
79010;DHT22;73031;44.726;37.760;2024-03-02T05:11:20;11.26;38.30
79010;DHT22;73031;44.726;37.760;2024-03-02T05:12:36;11.35;38.08
79010;DHT22;73031;44.726;37.760;2024-03-02T05:13:43;11.47;37.85
79010;DHT22;73031;44.726;37.760;2024-03-02T05:14:45;11.55;37.70
79010;DHT22;73031;44.726;37.760;2024-03-02T05:15:46;11.59;37.07
79010;DHT22;73031;44.726;37.760;2024-03-02T05:16:48;11.69;37.22
79010;DHT22;73031;44.726;37.760;2024-03-02T05:17:49;11.79;36.78
79010;DHT22;73031;44.726;37.760;2024-03-02T05:18:50;11.89;36.35
79010;DHT22;73031;44.726;37.760;2024-03-02T05:19:51;12.07;35.94
79010;DHT22;73031;44.726;37.760;2024-03-02T05:20:52;12.29;35.60
79010;DHT22;73031;44.726;37.760;2024-03-02T05:21:54;12.48;35.11
79010;DHT22;73031;44.726;37.760;2024-03-02T05:22:55;12.68;35.47
79010;DHT22;73031;44.726;37.760;2024-03-02T05:23:56;12.79;34.69
79010;DHT22;73031;44.726;37.760;2024-03-02T05:24:57;12.91;34.72
79010;DHT22;73031;44.726;37.760;2024-03-02T05:26:00;13.03;35.72
79010;DHT22;73031;44.726;37.760;2024-03-02T05:27:02;13.09;34.53
79010;DHT22;73031;44.726;37.760;2024-03-02T05:28:03;13.13;34.45
79010;DHT22;73031;44.726;37.760;2024-03-02T05:29:04;13.20;33.81
79010;DHT22;73031;44.726;37.760;2024-03-02T05:30:06;13.23;34.77
79010;DHT22;73031;44.726;37.760;2024-03-02T05:31:11;13.30;33.98
79010;DHT22;73031;44.726;37.760;2024-03-02T05:32:15;13.36;33.38
79010;DHT22;73031;44.726;37.760;2024-03-02T05:33:17;13.43;33.38
79010;DHT22;73031;44.726;37.760;2024-03-02T05:34:18;13.54;33.93
79010;DHT22;73031;44.726;37.760;2024-03-02T05:35:19;13.69;33.09
79010;DHT22;73031;44.726;37.760;2024-03-02T05:36:21;13.79;38.30
79010;DHT22;73031;44.726;37.760;2024-03-02T05:37:22;13.96;32.85
79010;DHT22;73031;44.726;37.760;2024-03-02T05:38:23;14.09;32.91
79010;DHT22;73031;44.726;37.760;2024-03-02T05:39:24;14.21;31.96
79010;DHT22;73031;44.726;37.760;2024-03-02T05:40:26;14.38;31.93
79010;DHT22;73031;44.726;37.760;2024-03-02T05:41:27;14.60;31.98
79010;DHT22;73031;44.726;37.760;2024-03-02T05:42:28;14.78;31.38
79010;DHT22;73031;44.726;37.760;2024-03-02T05:43:29;14.93;30.96
79010;DHT22;73031;44.726;37.760;2024-03-02T05:44:30;15.02;30.63
79010;DHT22;73031;44.726;37.760;2024-03-02T05:45:31;15.04;30.67
79010;DHT22;73031;44.726;37.760;2024-03-02T05:46:32;15.02;30.57
79010;DHT22;73031;44.726;37.760;2024-03-02T05:47:33;15.20;32.34
79010;DHT22;73031;44.726;37.760;2024-03-02T05:48:35;15.43;34.08
79010;DHT22;73031;44.726;37.760;2024-03-02T05:49:36;15.62;31.31
79010;DHT22;73031;44.726;37.760;2024-03-02T05:50:38;15.75;30.70
79010;DHT22;73031;44.726;37.760;2024-03-02T05:51:39;15.92;33.28
79010;DHT22;73031;44.726;37.760;2024-03-02T05:52:40;16.14;29.78
79010;DHT22;73031;44.726;37.760;2024-03-02T05:53:41;16.41;28.55
79010;DHT22;73031;44.726;37.760;2024-03-02T05:54:42;16.69;27.85
79010;DHT22;73031;44.726;37.760;2024-03-02T05:55:44;16.99;27.48
79010;DHT22;73031;44.726;37.760;2024-03-02T05:56:46;16.95;27.35
79010;DHT22;73031;44.726;37.760;2024-03-02T05:57:47;16.93;26.80
79010;DHT22;73031;44.726;37.760;2024-03-02T05:59:00;16.95;26.98
79010;DHT22;73031;44.726;37.760;2024-03-02T06:00:13;16.98;27.47
79010;DHT22;73031;44.726;37.760;2024-03-02T06:01:17;17.06;27.50
79010;DHT22;73031;44.726;37.760;2024-03-02T06:02:19;17.12;29.10
79010;DHT22;73031;44.726;37.760;2024-03-02T06:03:20;17.10;27.64
79010;DHT22;73031;44.726;37.760;2024-03-02T06:04:21;16.99;27.15
79010;DHT22;73031;44.726;37.760;2024-03-02T06:05:22;16.85;27.15
79010;DHT22;73031;44.726;37.760;2024-03-02T06:06:23;16.86;27.48
79010;DHT22;73031;44.726;37.760;2024-03-02T06:07:24;16.86;27.39
79010;DHT22;73031;44.726;37.760;2024-03-02T06:08:26;16.85;27.14
79010;DHT22;73031;44.726;37.760;2024-03-02T06:09:27;16.85;26.81
79010;DHT22;73031;44.726;37.760;2024-03-02T06:10:28;16.88;27.69
79010;DHT22;73031;44.726;37.760;2024-03-02T06:11:29;16.98;27.57
79010;DHT22;73031;44.726;37.760;2024-03-02T06:12:31;17.09;26.45
79010;DHT22;73031;44.726;37.760;2024-03-02T06:13:33;17.15;26.48
79010;DHT22;73031;44.726;37.760;2024-03-02T06:14:34;17.20;26.00
79010;DHT22;73031;44.726;37.760;2024-03-02T06:15:35;17.37;26.00
79010;DHT22;73031;44.726;37.760;2024-03-02T06:16:37;17.55;25.62
79010;DHT22;73031;44.726;37.760;2024-03-02T06:17:38;17.70;26.72
79010;DHT22;73031;44.726;37.760;2024-03-02T06:18:39;17.72;25.52
79010;DHT22;73031;44.726;37.760;2024-03-02T06:19:40;17.86;27.06
79010;DHT22;73031;44.726;37.760;2024-03-02T06:20:41;17.92;26.19
79010;DHT22;73031;44.726;37.760;2024-03-02T06:21:43;17.92;25.61
79010;DHT22;73031;44.726;37.760;2024-03-02T06:22:44;17.96;25.56
79010;DHT22;73031;44.726;37.760;2024-03-02T06:23:45;18.14;26.18
79010;DHT22;73031;44.726;37.760;2024-03-02T06:24:47;18.36;25.04
79010;DHT22;73031;44.726;37.760;2024-03-02T06:25:48;18.61;24.98
79010;DHT22;73031;44.726;37.760;2024-03-02T06:26:49;18.96;24.87
79010;DHT22;73031;44.726;37.760;2024-03-02T06:27:50;19.27;23.99
79010;DHT22;73031;44.726;37.760;2024-03-02T06:28:52;19.50;23.71
79010;DHT22;73031;44.726;37.760;2024-03-02T06:29:53;19.74;26.30
79010;DHT22;73031;44.726;37.760;2024-03-02T06:30:55;20.08;23.02